createdAt,value
2017-01-08T00:00:01.628Z,-3.2
2017-01-08T00:00:20.291Z,-3.2
2017-01-08T00:00:38.943Z,-3.2
2017-01-08T00:00:57.609Z,-3.2
2017-01-08T00:01:16.264Z,-3.2
2017-01-08T00:01:34.918Z,-3.2
2017-01-08T00:01:53.576Z,-3.2
2017-01-08T00:02:12.228Z,-3.2
2017-01-08T00:02:30.905Z,-3.2
2017-01-08T00:02:49.585Z,-3.2
2017-01-08T00:03:08.232Z,-3.2
2017-01-08T00:03:26.892Z,-3.2
2017-01-08T00:03:45.548Z,-3.2
2017-01-08T00:04:04.207Z,-3.2
2017-01-08T00:04:22.861Z,-3.2
2017-01-08T00:04:41.513Z,-3.2
2017-01-08T00:05:00.184Z,-3.2
2017-01-08T00:05:18.839Z,-3.2
2017-01-08T00:05:37.494Z,-3.2
2017-01-08T00:05:56.150Z,-3.2
2017-01-08T00:06:14.805Z,-3.2
2017-01-08T00:06:33.461Z,-3.2
2017-01-08T00:06:52.115Z,-3.1
2017-01-08T00:07:10.772Z,-3.2
2017-01-08T00:07:29.455Z,-3.2
2017-01-08T00:07:48.111Z,-3.1
2017-01-08T00:08:06.764Z,-3.1
2017-01-08T00:08:25.416Z,-3.1
2017-01-08T00:08:44.071Z,-3.1
2017-01-08T00:09:02.732Z,-3.1
2017-01-08T00:09:21.387Z,-3.1
2017-01-08T00:09:40.045Z,-3.1
2017-01-08T00:09:58.703Z,-3.1
2017-01-08T00:10:17.368Z,-3.1
2017-01-08T00:10:36.026Z,-3.1
2017-01-08T00:10:54.704Z,-3.1
2017-01-08T00:11:13.366Z,-3
2017-01-08T00:11:32.024Z,-3
2017-01-08T00:11:50.680Z,-3
2017-01-08T00:12:09.341Z,-3
2017-01-08T00:12:28.022Z,-3
2017-01-08T00:12:46.678Z,-3
2017-01-08T00:13:05.343Z,-3
2017-01-08T00:13:23.996Z,-3
2017-01-08T00:13:42.657Z,-3
2017-01-08T00:14:01.315Z,-3
2017-01-08T00:14:19.981Z,-3
2017-01-08T00:14:38.633Z,-3
2017-01-08T00:14:57.298Z,-3
2017-01-08T00:15:15.953Z,-3
2017-01-08T00:15:34.653Z,-3
2017-01-08T00:15:53.306Z,-2.9
2017-01-08T00:16:11.960Z,-2.9
2017-01-08T00:16:30.620Z,-2.9
2017-01-08T00:16:49.276Z,-2.9
2017-01-08T00:17:07.972Z,-2.9
2017-01-08T00:17:26.632Z,-2.9
2017-01-08T00:17:45.290Z,-2.9
2017-01-08T00:18:03.943Z,-2.9
2017-01-08T00:18:22.599Z,-2.9
2017-01-08T00:18:41.256Z,-2.9
2017-01-08T00:18:59.916Z,-2.9
2017-01-08T00:19:18.570Z,-2.9
2017-01-08T00:19:37.231Z,-2.9
2017-01-08T00:19:55.880Z,-2.9
2017-01-08T00:20:14.565Z,-2.9
2017-01-08T00:20:33.226Z,-2.9
2017-01-08T00:20:51.894Z,-2.9
2017-01-08T00:21:10.544Z,-2.9
2017-01-08T00:21:29.199Z,-2.9
2017-01-08T00:21:47.900Z,-2.9
2017-01-08T00:22:06.557Z,-3
2017-01-08T00:22:25.210Z,-3
2017-01-08T00:22:43.867Z,-3
2017-01-08T00:23:02.522Z,-3
2017-01-08T00:23:21.180Z,-3
2017-01-08T00:23:39.835Z,-3
2017-01-08T00:23:58.487Z,-3
2017-01-08T00:24:17.153Z,-3
2017-01-08T00:24:35.808Z,-3
2017-01-08T00:24:54.493Z,-3
2017-01-08T00:25:13.149Z,-3
2017-01-08T00:25:31.801Z,-3
2017-01-08T00:25:50.457Z,-2.9
2017-01-08T00:26:09.118Z,-2.9
2017-01-08T00:26:27.772Z,-2.9
2017-01-08T00:26:46.429Z,-2.9
2017-01-08T00:27:05.084Z,-2.9
2017-01-08T00:27:23.740Z,-2.9
2017-01-08T00:27:42.401Z,-2.9
2017-01-08T00:28:01.053Z,-2.9
2017-01-08T00:28:19.709Z,-2.9
2017-01-08T00:28:38.367Z,-2.9
2017-01-08T00:28:57.025Z,-2.9
2017-01-08T00:29:15.676Z,-3
2017-01-08T00:29:34.356Z,-2.9
2017-01-08T00:29:53.014Z,-2.9
2017-01-08T00:30:11.673Z,-2.9
2017-01-08T00:30:30.325Z,-2.9
2017-01-08T00:30:48.976Z,-2.9
2017-01-08T00:31:07.635Z,-2.9
2017-01-08T00:31:26.296Z,-2.9
2017-01-08T00:31:44.950Z,-2.9
2017-01-08T00:32:03.602Z,-2.9
2017-01-08T00:32:22.262Z,-2.9
2017-01-08T00:32:40.918Z,-2.9
2017-01-08T00:32:59.611Z,-2.9
2017-01-08T00:33:18.275Z,-2.9
2017-01-08T00:33:36.930Z,-2.9
2017-01-08T00:33:55.587Z,-2.9
2017-01-08T00:34:14.258Z,-2.9
2017-01-08T00:34:32.924Z,-2.9
2017-01-08T00:34:51.579Z,-2.9
2017-01-08T00:35:10.238Z,-2.9
2017-01-08T00:35:28.890Z,-2.9
2017-01-08T00:35:47.544Z,-2.9
2017-01-08T00:36:06.199Z,-3
2017-01-08T00:36:24.858Z,-3
2017-01-08T00:36:43.527Z,-3
2017-01-08T00:37:02.179Z,-3
2017-01-08T00:37:20.846Z,-3
2017-01-08T00:37:39.536Z,-3
2017-01-08T00:37:58.189Z,-3
2017-01-08T00:38:16.845Z,-3
2017-01-08T00:38:35.506Z,-3
2017-01-08T00:38:54.172Z,-3
2017-01-08T00:39:12.869Z,-3
2017-01-08T00:39:31.526Z,-3
2017-01-08T00:39:50.189Z,-3
2017-01-08T00:40:08.843Z,-2.9
2017-01-08T00:40:27.501Z,-3
2017-01-08T00:40:46.150Z,-2.9
2017-01-08T00:41:04.808Z,-2.9
2017-01-08T00:41:23.462Z,-3
2017-01-08T00:41:42.117Z,-2.9
2017-01-08T00:42:00.778Z,-2.9
2017-01-08T00:42:19.460Z,-2.9
2017-01-08T00:42:38.115Z,-2.9
2017-01-08T00:42:56.777Z,-2.9
2017-01-08T00:43:15.432Z,-2.9
2017-01-08T00:43:34.088Z,-2.9
2017-01-08T00:43:52.769Z,-2.9
2017-01-08T00:44:11.425Z,-2.9
2017-01-08T00:44:30.074Z,-2.9
2017-01-08T00:44:48.729Z,-2.9
2017-01-08T00:45:07.418Z,-2.9
2017-01-08T00:45:26.078Z,-2.9
2017-01-08T00:45:44.735Z,-2.9
2017-01-08T00:46:03.392Z,-2.9
2017-01-08T00:46:22.046Z,-2.9
2017-01-08T00:46:40.707Z,-2.9
2017-01-08T00:46:59.393Z,-2.8
2017-01-08T00:47:18.047Z,-2.9
2017-01-08T00:47:36.705Z,-2.8
2017-01-08T00:47:55.360Z,-2.8
2017-01-08T00:48:14.017Z,-2.8
2017-01-08T00:48:32.670Z,-2.8
2017-01-08T00:48:51.328Z,-2.8
2017-01-08T00:49:10.010Z,-2.8
2017-01-08T00:49:28.662Z,-2.8
2017-01-08T00:49:47.315Z,-2.8
2017-01-08T00:50:05.974Z,-2.8
2017-01-08T00:50:24.628Z,-2.8
2017-01-08T00:50:43.282Z,-2.8
2017-01-08T00:51:01.943Z,-2.9
2017-01-08T00:51:20.598Z,-2.8
2017-01-08T00:51:39.273Z,-2.8
2017-01-08T00:51:57.928Z,-2.8
2017-01-08T00:52:16.606Z,-2.8
2017-01-08T00:52:35.267Z,-2.8
2017-01-08T00:52:53.922Z,-2.9
2017-01-08T00:53:12.574Z,-2.8
2017-01-08T00:53:31.224Z,-2.8
2017-01-08T00:53:49.878Z,-2.8
2017-01-08T00:54:08.532Z,-2.8
2017-01-08T00:54:27.188Z,-2.8
2017-01-08T00:54:45.841Z,-2.8
2017-01-08T00:55:04.523Z,-2.8
2017-01-08T00:55:23.184Z,-2.8
2017-01-08T00:55:41.839Z,-2.8
2017-01-08T00:56:00.491Z,-2.8
2017-01-08T00:56:19.165Z,-2.8
2017-01-08T00:56:37.836Z,-2.8
2017-01-08T00:56:56.493Z,-2.8
2017-01-08T00:57:15.145Z,-2.8
2017-01-08T00:57:33.799Z,-2.8
2017-01-08T00:57:52.466Z,-2.8
2017-01-08T00:58:11.129Z,-2.8
2017-01-08T00:58:29.789Z,-2.8
2017-01-08T00:58:48.447Z,-2.9
2017-01-08T00:59:07.108Z,-2.9
2017-01-08T00:59:25.768Z,-2.9
2017-01-08T00:59:44.454Z,-2.9
2017-01-08T01:00:03.122Z,-2.9
2017-01-08T01:00:21.782Z,-2.9
2017-01-08T01:00:40.441Z,-2.9
2017-01-08T01:00:59.097Z,-2.9
2017-01-08T01:01:17.798Z,-2.9
2017-01-08T01:01:36.457Z,-2.9
2017-01-08T01:01:55.118Z,-3
2017-01-08T01:02:13.769Z,-3
2017-01-08T01:02:32.427Z,-3
2017-01-08T01:02:51.092Z,-3
2017-01-08T01:03:09.760Z,-3
2017-01-08T01:03:28.411Z,-3
2017-01-08T01:03:47.072Z,-3
2017-01-08T01:04:05.730Z,-3
2017-01-08T01:04:24.421Z,-3
2017-01-08T01:04:43.070Z,-2.9
2017-01-08T01:05:01.730Z,-3
2017-01-08T01:05:20.385Z,-2.9
2017-01-08T01:05:39.044Z,-3
2017-01-08T01:05:57.732Z,-2.9
2017-01-08T01:06:16.386Z,-2.9
2017-01-08T01:06:35.043Z,-2.9
2017-01-08T01:06:53.697Z,-2.9
2017-01-08T01:07:12.350Z,-2.9
2017-01-08T01:07:31.012Z,-2.9
2017-01-08T01:07:49.666Z,-2.9
2017-01-08T01:08:08.329Z,-2.9
2017-01-08T01:08:26.986Z,-2.9
2017-01-08T01:08:45.657Z,-2.9
2017-01-08T01:09:04.348Z,-2.9
2017-01-08T01:09:23.003Z,-2.8
2017-01-08T01:09:41.657Z,-2.8
2017-01-08T01:10:00.315Z,-2.8
2017-01-08T01:10:18.969Z,-2.8
2017-01-08T01:10:37.638Z,-2.9
2017-01-08T01:10:56.293Z,-2.8
2017-01-08T01:11:14.957Z,-2.8
2017-01-08T01:11:33.613Z,-2.9
2017-01-08T01:11:52.270Z,-2.9
2017-01-08T01:12:10.926Z,-2.9
2017-01-08T01:12:29.578Z,-2.9
2017-01-08T01:12:48.235Z,-2.9
2017-01-08T01:13:06.893Z,-2.9
2017-01-08T01:13:25.555Z,-2.9
2017-01-08T01:13:44.254Z,-2.9
2017-01-08T01:14:02.907Z,-2.9
2017-01-08T01:14:21.564Z,-2.8
2017-01-08T01:14:40.221Z,-2.8
2017-01-08T01:14:58.874Z,-2.8
2017-01-08T01:15:17.535Z,-2.8
2017-01-08T01:15:36.188Z,-2.8
2017-01-08T01:15:54.838Z,-2.8
2017-01-08T01:16:13.494Z,-2.8
2017-01-08T01:16:32.149Z,-2.8
2017-01-08T01:16:50.802Z,-2.8
2017-01-08T01:17:09.476Z,-2.8
2017-01-08T01:17:28.135Z,-2.8
2017-01-08T01:17:46.791Z,-2.8
2017-01-08T01:18:05.466Z,-2.8
2017-01-08T01:18:24.138Z,-2.9
2017-01-08T01:18:42.790Z,-2.9
2017-01-08T01:19:01.445Z,-2.8
2017-01-08T01:19:20.104Z,-2.9
2017-01-08T01:19:38.759Z,-2.9
2017-01-08T01:19:57.413Z,-2.8
2017-01-08T01:20:16.074Z,-2.8
2017-01-08T01:20:34.734Z,-2.8
2017-01-08T01:20:53.386Z,-2.8
2017-01-08T01:21:12.036Z,-2.8
2017-01-08T01:21:30.697Z,-2.8
2017-01-08T01:21:49.380Z,-2.8
2017-01-08T01:22:08.072Z,-2.8
2017-01-08T01:22:26.720Z,-2.8
2017-01-08T01:22:45.376Z,-2.8
2017-01-08T01:23:04.041Z,-2.8
2017-01-08T01:23:22.713Z,-2.8
2017-01-08T01:23:41.368Z,-2.8
2017-01-08T01:24:00.028Z,-2.8
2017-01-08T01:24:18.689Z,-2.8
2017-01-08T01:24:37.344Z,-2.8
2017-01-08T01:24:55.994Z,-2.8
2017-01-08T01:25:14.652Z,-2.8
2017-01-08T01:25:33.313Z,-2.8
2017-01-08T01:25:51.968Z,-2.8
2017-01-08T01:26:10.623Z,-2.8
2017-01-08T01:26:29.310Z,-2.8
2017-01-08T01:26:47.970Z,-2.8
2017-01-08T01:27:06.629Z,-2.8
2017-01-08T01:27:25.290Z,-2.8
2017-01-08T01:27:43.954Z,-2.8
2017-01-08T01:28:02.655Z,-2.8
2017-01-08T01:28:21.312Z,-2.8
2017-01-08T01:28:39.962Z,-2.8
2017-01-08T01:28:58.623Z,-2.8
2017-01-08T01:29:17.285Z,-2.7
2017-01-08T01:29:35.951Z,-2.8
2017-01-08T01:29:54.604Z,-2.7
2017-01-08T01:30:13.272Z,-2.8
2017-01-08T01:30:31.930Z,-2.7
2017-01-08T01:30:50.585Z,-2.8
2017-01-08T01:31:09.271Z,-2.8
2017-01-08T01:31:27.936Z,-2.7
2017-01-08T01:31:46.588Z,-2.7
2017-01-08T01:32:05.250Z,-2.7
2017-01-08T01:32:23.898Z,-2.7
2017-01-08T01:32:42.612Z,-2.7
2017-01-08T01:33:01.265Z,-2.7
2017-01-08T01:33:19.923Z,-2.8
2017-01-08T01:33:38.574Z,-2.8
2017-01-08T01:33:57.226Z,-2.8
2017-01-08T01:34:15.879Z,-2.8
2017-01-08T01:34:34.541Z,-2.7
2017-01-08T01:34:53.199Z,-2.7
2017-01-08T01:35:11.871Z,-2.7
2017-01-08T01:35:30.529Z,-2.7
2017-01-08T01:35:49.211Z,-2.7
2017-01-08T01:36:07.860Z,-2.7
2017-01-08T01:36:26.519Z,-2.7
2017-01-08T01:36:45.184Z,-2.7
2017-01-08T01:37:03.835Z,-2.7
2017-01-08T01:37:22.488Z,-2.7
2017-01-08T01:37:41.140Z,-2.6
2017-01-08T01:37:59.794Z,-2.7
2017-01-08T01:38:18.451Z,-2.6
2017-01-08T01:38:37.108Z,-2.6
2017-01-08T01:38:55.757Z,-2.7
2017-01-08T01:39:14.418Z,-2.7
2017-01-08T01:39:33.076Z,-2.7
2017-01-08T01:39:51.738Z,-2.7
2017-01-08T01:40:10.408Z,-2.7
2017-01-08T01:40:29.093Z,-2.7
2017-01-08T01:40:47.755Z,-2.7
2017-01-08T01:41:06.417Z,-2.7
2017-01-08T01:41:25.069Z,-2.7
2017-01-08T01:41:43.720Z,-2.7
2017-01-08T01:42:02.374Z,-2.7
2017-01-08T01:42:21.028Z,-2.7
2017-01-08T01:42:39.682Z,-2.7
2017-01-08T01:42:58.339Z,-2.7
2017-01-08T01:43:17.000Z,-2.7
2017-01-08T01:43:35.659Z,-2.7
2017-01-08T01:43:54.332Z,-2.6
2017-01-08T01:44:12.980Z,-2.6
2017-01-08T01:44:31.642Z,-2.6
2017-01-08T01:44:50.299Z,-2.6
2017-01-08T01:45:08.971Z,-2.6
2017-01-08T01:45:27.632Z,-2.6
2017-01-08T01:45:46.291Z,-2.7
2017-01-08T01:46:04.947Z,-2.6
2017-01-08T01:46:23.603Z,-2.6
2017-01-08T01:46:42.258Z,-2.6
2017-01-08T01:47:00.912Z,-2.6
2017-01-08T01:47:19.572Z,-2.6
2017-01-08T01:47:38.228Z,-2.6
2017-01-08T01:47:56.881Z,-2.6
2017-01-08T01:48:15.545Z,-2.6
2017-01-08T01:48:34.256Z,-2.6
2017-01-08T01:48:52.912Z,-2.6
2017-01-08T01:49:11.562Z,-2.6
2017-01-08T01:49:30.214Z,-2.6
2017-01-08T01:49:48.872Z,-2.6
2017-01-08T01:50:07.570Z,-2.6
2017-01-08T01:50:26.219Z,-2.6
2017-01-08T01:50:44.881Z,-2.6
2017-01-08T01:51:03.537Z,-2.6
2017-01-08T01:51:22.202Z,-2.6
2017-01-08T01:51:40.855Z,-2.6
2017-01-08T01:51:59.516Z,-2.6
2017-01-08T01:52:18.170Z,-2.6
2017-01-08T01:52:36.826Z,-2.6
2017-01-08T01:52:55.477Z,-2.6
2017-01-08T01:53:14.156Z,-2.6
2017-01-08T01:53:32.810Z,-2.6
2017-01-08T01:53:51.466Z,-2.6
2017-01-08T01:54:10.120Z,-2.6
2017-01-08T01:54:28.770Z,-2.6
2017-01-08T01:54:47.437Z,-2.6
2017-01-08T01:55:06.091Z,-2.6
2017-01-08T01:55:24.753Z,-2.6
2017-01-08T01:55:43.404Z,-2.6
2017-01-08T01:56:02.073Z,-2.6
2017-01-08T01:56:20.727Z,-2.6
2017-01-08T01:56:39.388Z,-2.6
2017-01-08T01:56:58.044Z,-2.6
2017-01-08T01:57:16.704Z,-2.6
2017-01-08T01:57:35.363Z,-2.6
2017-01-08T01:57:54.052Z,-2.6
2017-01-08T01:58:12.711Z,-2.6
2017-01-08T01:58:31.361Z,-2.6
2017-01-08T01:58:50.015Z,-2.6
2017-01-08T01:59:08.674Z,-2.6
2017-01-08T01:59:27.329Z,-2.6
2017-01-08T01:59:45.982Z,-2.6
2017-01-08T02:00:04.634Z,-2.6
2017-01-08T02:00:23.289Z,-2.6
2017-01-08T02:00:41.953Z,-2.6
2017-01-08T02:01:00.605Z,-2.6
2017-01-08T02:01:19.267Z,-2.5
2017-01-08T02:01:37.921Z,-2.6
2017-01-08T02:01:56.585Z,-2.6
2017-01-08T02:02:15.241Z,-2.6
2017-01-08T02:02:33.906Z,-2.6
2017-01-08T02:02:52.595Z,-2.6
2017-01-08T02:03:11.255Z,-2.6
2017-01-08T02:03:29.912Z,-2.6
2017-01-08T02:03:48.573Z,-2.6
2017-01-08T02:04:07.239Z,-2.6
2017-01-08T02:04:25.893Z,-2.6
2017-01-08T02:04:44.546Z,-2.5
2017-01-08T02:05:03.198Z,-2.5
2017-01-08T02:05:21.847Z,-2.5
2017-01-08T02:05:40.509Z,-2.5
2017-01-08T02:05:59.196Z,-2.5
2017-01-08T02:06:17.851Z,-2.5
2017-01-08T02:06:36.507Z,-2.5
2017-01-08T02:06:55.166Z,-2.5
2017-01-08T02:07:13.829Z,-2.4
2017-01-08T02:07:32.513Z,-2.4
2017-01-08T02:07:51.166Z,-2.4
2017-01-08T02:08:09.823Z,-2.4
2017-01-08T02:08:28.477Z,-2.4
2017-01-08T02:08:47.128Z,-2.5
2017-01-08T02:09:05.780Z,-2.5
2017-01-08T02:09:24.438Z,-2.5
2017-01-08T02:09:43.099Z,-2.5
2017-01-08T02:10:01.757Z,-2.5
2017-01-08T02:10:20.413Z,-2.5
2017-01-08T02:10:39.103Z,-2.5
2017-01-08T02:10:57.761Z,-2.4
2017-01-08T02:11:16.416Z,-2.4
2017-01-08T02:11:35.080Z,-2.4
2017-01-08T02:11:53.737Z,-2.4
2017-01-08T02:12:12.435Z,-2.4
2017-01-08T02:12:31.092Z,-2.4
2017-01-08T02:12:49.742Z,-2.4
2017-01-08T02:13:08.395Z,-2.4
2017-01-08T02:13:27.057Z,-2.5
2017-01-08T02:13:45.711Z,-2.5
2017-01-08T02:14:04.367Z,-2.5
2017-01-08T02:14:23.026Z,-2.4
2017-01-08T02:14:41.685Z,-2.5
2017-01-08T02:15:00.347Z,-2.5
2017-01-08T02:15:19.032Z,-2.5
2017-01-08T02:15:37.687Z,-2.5
2017-01-08T02:15:56.345Z,-2.4
2017-01-08T02:16:14.996Z,-2.4
2017-01-08T02:16:33.644Z,-2.4
2017-01-08T02:16:52.301Z,-2.4
2017-01-08T02:17:10.970Z,-2.4
2017-01-08T02:17:29.626Z,-2.5
2017-01-08T02:17:48.279Z,-2.5
2017-01-08T02:18:06.936Z,-2.5
2017-01-08T02:18:25.591Z,-2.5
2017-01-08T02:18:44.253Z,-2.5
2017-01-08T02:19:02.911Z,-2.5
2017-01-08T02:19:21.574Z,-2.5
2017-01-08T02:19:40.230Z,-2.5
2017-01-08T02:19:58.913Z,-2.5
2017-01-08T02:20:17.568Z,-2.5
2017-01-08T02:20:36.228Z,-2.5
2017-01-08T02:20:54.880Z,-2.5
2017-01-08T02:21:13.536Z,-2.4
2017-01-08T02:21:32.198Z,-2.4
2017-01-08T02:21:50.858Z,-2.4
2017-01-08T02:22:09.530Z,-2.4
2017-01-08T02:22:28.198Z,-2.4
2017-01-08T02:22:46.850Z,-2.4
2017-01-08T02:23:05.509Z,-2.4
2017-01-08T02:23:24.177Z,-2.4
2017-01-08T02:23:42.830Z,-2.4
2017-01-08T02:24:01.484Z,-2.3
2017-01-08T02:24:20.139Z,-2.3
2017-01-08T02:24:38.809Z,-2.3
2017-01-08T02:24:57.466Z,-2.3
2017-01-08T02:25:16.121Z,-2.3
2017-01-08T02:25:34.784Z,-2.3
2017-01-08T02:25:53.439Z,-2.3
2017-01-08T02:26:12.100Z,-2.3
2017-01-08T02:26:30.750Z,-2.3
2017-01-08T02:26:49.404Z,-2.4
2017-01-08T02:27:08.059Z,-2.4
2017-01-08T02:27:26.714Z,-2.4
2017-01-08T02:27:45.382Z,-2.4
2017-01-08T02:28:04.060Z,-2.4
2017-01-08T02:28:22.715Z,-2.4
2017-01-08T02:28:41.375Z,-2.4
2017-01-08T02:29:00.031Z,-2.4
2017-01-08T02:29:18.678Z,-2.4
2017-01-08T02:29:37.381Z,-2.3
2017-01-08T02:29:56.034Z,-2.4
2017-01-08T02:30:14.695Z,-2.4
2017-01-08T02:30:33.345Z,-2.4
2017-01-08T02:30:52.008Z,-2.3
2017-01-08T02:31:10.669Z,-2.3
2017-01-08T02:31:29.325Z,-2.3
2017-01-08T02:31:47.986Z,-2.3
2017-01-08T02:32:06.644Z,-2.3
2017-01-08T02:32:25.302Z,-2.3
2017-01-08T02:32:43.990Z,-2.3
2017-01-08T02:33:02.654Z,-2.3
2017-01-08T02:33:21.304Z,-2.3
2017-01-08T02:33:39.959Z,-2.3
2017-01-08T02:33:58.622Z,-2.3
2017-01-08T02:34:17.312Z,-2.4
2017-01-08T02:34:35.962Z,-2.4
2017-01-08T02:34:54.617Z,-2.4
2017-01-08T02:35:13.275Z,-2.4
2017-01-08T02:35:31.929Z,-2.4
2017-01-08T02:35:50.587Z,-2.4
2017-01-08T02:36:09.250Z,-2.3
2017-01-08T02:36:27.911Z,-2.4
2017-01-08T02:36:46.568Z,-2.4
2017-01-08T02:37:05.219Z,-2.3
2017-01-08T02:37:23.903Z,-2.4
2017-01-08T02:37:42.557Z,-2.4
2017-01-08T02:38:01.213Z,-2.3
2017-01-08T02:38:19.888Z,-2.4
2017-01-08T02:38:38.538Z,-2.3
2017-01-08T02:38:57.199Z,-2.4
2017-01-08T02:39:15.852Z,-2.4
2017-01-08T02:39:34.507Z,-2.4
2017-01-08T02:39:53.155Z,-2.4
2017-01-08T02:40:11.818Z,-2.4
2017-01-08T02:40:30.500Z,-2.4
2017-01-08T02:40:49.158Z,-2.4
2017-01-08T02:41:07.812Z,-2.4
2017-01-08T02:41:26.475Z,-2.4
2017-01-08T02:41:45.130Z,-2.4
2017-01-08T02:42:03.807Z,-2.4
2017-01-08T02:42:22.459Z,-2.3
2017-01-08T02:42:41.120Z,-2.3
2017-01-08T02:42:59.778Z,-2.3
2017-01-08T02:43:18.435Z,-2.3
2017-01-08T02:43:37.089Z,-2.3
2017-01-08T02:43:55.754Z,-2.3
2017-01-08T02:44:14.412Z,-2.3
2017-01-08T02:44:33.074Z,-2.3
2017-01-08T02:44:51.722Z,-2.3
2017-01-08T02:45:10.385Z,-2.3
2017-01-08T02:45:29.060Z,-2.3
2017-01-08T02:45:47.724Z,-2.3
2017-01-08T02:46:06.377Z,-2.3
2017-01-08T02:46:25.045Z,-2.3
2017-01-08T02:46:43.712Z,-2.3
2017-01-08T02:47:02.372Z,-2.3
2017-01-08T02:47:21.021Z,-2.3
2017-01-08T02:47:39.677Z,-2.3
2017-01-08T02:47:58.331Z,-2.3
2017-01-08T02:48:16.990Z,-2.3
2017-01-08T02:48:35.648Z,-2.3
2017-01-08T02:48:54.318Z,-2.3
2017-01-08T02:49:12.976Z,-2.3
2017-01-08T02:49:31.642Z,-2.3
2017-01-08T02:49:50.292Z,-2.3
2017-01-08T02:50:08.976Z,-2.3
2017-01-08T02:50:27.630Z,-2.2
2017-01-08T02:50:46.288Z,-2.3
2017-01-08T02:51:04.969Z,-2.3
2017-01-08T02:51:23.642Z,-2.3
2017-01-08T02:51:42.325Z,-2.3
2017-01-08T02:52:00.984Z,-2.3
2017-01-08T02:52:19.635Z,-2.3
2017-01-08T02:52:38.290Z,-2.3
2017-01-08T02:52:56.942Z,-2.3
2017-01-08T02:53:15.603Z,-2.3
2017-01-08T02:53:34.257Z,-2.3
2017-01-08T02:53:52.921Z,-2.3
2017-01-08T02:54:11.581Z,-2.3
2017-01-08T02:54:30.242Z,-2.3
2017-01-08T02:54:48.923Z,-2.3
2017-01-08T02:55:07.582Z,-2.3
2017-01-08T02:55:26.236Z,-2.3
2017-01-08T02:55:44.906Z,-2.3
2017-01-08T02:56:03.554Z,-2.3
2017-01-08T02:56:22.267Z,-2.3
2017-01-08T02:56:40.921Z,-2.3
2017-01-08T02:56:59.583Z,-2.3
2017-01-08T02:57:18.233Z,-2.3
2017-01-08T02:57:36.895Z,-2.3
2017-01-08T02:57:55.552Z,-2.3
2017-01-08T02:58:14.209Z,-2.3
2017-01-08T02:58:32.864Z,-2.3
2017-01-08T02:58:51.527Z,-2.3
2017-01-08T02:59:10.181Z,-2.3
2017-01-08T02:59:28.876Z,-2.3
2017-01-08T02:59:47.527Z,-2.3
2017-01-08T03:00:06.191Z,-2.2
2017-01-08T03:00:24.844Z,-2.2
2017-01-08T03:00:43.503Z,-2.2
2017-01-08T03:01:02.193Z,-2.2
2017-01-08T03:01:20.848Z,-2.2
2017-01-08T03:01:39.511Z,-2.2
2017-01-08T03:01:58.164Z,-2.2
2017-01-08T03:02:16.813Z,-2.2
2017-01-08T03:02:35.472Z,-2.2
2017-01-08T03:02:54.126Z,-2.2
2017-01-08T03:03:12.784Z,-2.2
2017-01-08T03:03:31.435Z,-2.2
2017-01-08T03:03:50.090Z,-2.2
2017-01-08T03:04:08.787Z,-2.1
2017-01-08T03:04:27.447Z,-2.1
2017-01-08T03:04:46.104Z,-2.1
2017-01-08T03:05:04.751Z,-2.1
2017-01-08T03:05:23.410Z,-2.1
2017-01-08T03:05:42.071Z,-2.1
2017-01-08T03:06:00.724Z,-2.1
2017-01-08T03:06:19.372Z,-2.1
2017-01-08T03:06:38.038Z,-2.1
2017-01-08T03:06:56.693Z,-2.1
2017-01-08T03:07:15.351Z,-2.1
2017-01-08T03:07:34.003Z,-2.1
2017-01-08T03:07:52.663Z,-2.1
2017-01-08T03:08:11.319Z,-2.1
2017-01-08T03:08:29.978Z,-2.1
2017-01-08T03:08:48.646Z,-2.1
2017-01-08T03:09:07.309Z,-2.1
2017-01-08T03:09:25.965Z,-2.1
2017-01-08T03:09:44.621Z,-2.1
2017-01-08T03:10:03.287Z,-2.1
2017-01-08T03:10:21.949Z,-2.1
2017-01-08T03:10:40.603Z,-2.1
2017-01-08T03:10:59.263Z,-2.1
2017-01-08T03:11:17.916Z,-2.1
2017-01-08T03:11:36.573Z,-2.1
2017-01-08T03:11:55.230Z,-2.1
2017-01-08T03:12:13.916Z,-2.1
2017-01-08T03:12:32.572Z,-2.1
2017-01-08T03:12:51.237Z,-2.1
2017-01-08T03:13:09.892Z,-2.1
2017-01-08T03:13:28.563Z,-2.1
2017-01-08T03:13:47.236Z,-2.1
2017-01-08T03:14:05.897Z,-2.1
2017-01-08T03:14:24.554Z,-2.1
2017-01-08T03:14:43.209Z,-2.1
2017-01-08T03:15:01.868Z,-2.1
2017-01-08T03:15:20.536Z,-2.2
2017-01-08T03:15:39.197Z,-2.2
2017-01-08T03:15:57.859Z,-2.2
2017-01-08T03:16:16.516Z,-2.2
2017-01-08T03:16:35.181Z,-2.2
2017-01-08T03:16:53.869Z,-2.2
2017-01-08T03:17:12.531Z,-2.2
2017-01-08T03:17:31.185Z,-2.2
2017-01-08T03:17:49.840Z,-2.2
2017-01-08T03:18:08.498Z,-2.2
2017-01-08T03:18:27.190Z,-2.2
2017-01-08T03:18:45.849Z,-2.2
2017-01-08T03:19:04.496Z,-2.2
2017-01-08T03:19:23.159Z,-2.2
2017-01-08T03:19:41.812Z,-2.2
2017-01-08T03:20:00.481Z,-2.2
2017-01-08T03:20:19.130Z,-2.2
2017-01-08T03:20:37.786Z,-2.2
2017-01-08T03:20:56.446Z,-2.2
2017-01-08T03:21:15.105Z,-2.2
2017-01-08T03:21:33.789Z,-2.2
2017-01-08T03:21:52.445Z,-2.2
2017-01-08T03:22:11.099Z,-2.2
2017-01-08T03:22:29.754Z,-2.2
2017-01-08T03:22:48.404Z,-2.2
2017-01-08T03:23:07.096Z,-2.2
2017-01-08T03:23:25.750Z,-2.2
2017-01-08T03:23:44.407Z,-2.2
2017-01-08T03:24:03.056Z,-2.2
2017-01-08T03:24:21.713Z,-2.2
2017-01-08T03:24:40.371Z,-2.2
2017-01-08T03:24:59.026Z,-2.2
2017-01-08T03:25:17.674Z,-2.1
2017-01-08T03:25:36.335Z,-2.1
2017-01-08T03:25:55.002Z,-2.1
2017-01-08T03:26:13.693Z,-2.2
2017-01-08T03:26:32.343Z,-2.2
2017-01-08T03:26:51.011Z,-2.2
2017-01-08T03:27:09.667Z,-2.2
2017-01-08T03:27:28.329Z,-2.2
2017-01-08T03:27:46.987Z,-2.2
2017-01-08T03:28:05.644Z,-2.2
2017-01-08T03:28:24.303Z,-2.2
2017-01-08T03:28:42.958Z,-2.2
2017-01-08T03:29:01.614Z,-2.2
2017-01-08T03:29:20.272Z,-2.2
2017-01-08T03:29:38.929Z,-2.2
2017-01-08T03:29:57.585Z,-2.2
2017-01-08T03:30:16.246Z,-2.2
2017-01-08T03:30:34.906Z,-2.2
2017-01-08T03:30:53.589Z,-2.2
2017-01-08T03:31:12.247Z,-2.2
2017-01-08T03:31:30.907Z,-2.2
2017-01-08T03:31:49.570Z,-2.2
2017-01-08T03:32:08.225Z,-2.2
2017-01-08T03:32:26.888Z,-2.2
2017-01-08T03:32:45.540Z,-2.2
2017-01-08T03:33:04.200Z,-2.2
2017-01-08T03:33:22.857Z,-2.2
2017-01-08T03:33:41.510Z,-2.2
2017-01-08T03:34:00.165Z,-2.2
2017-01-08T03:34:18.837Z,-2.2
2017-01-08T03:34:37.494Z,-2.2
2017-01-08T03:34:56.149Z,-2.2
2017-01-08T03:35:14.825Z,-2.2
2017-01-08T03:35:33.484Z,-2.2
2017-01-08T03:35:52.157Z,-2.2
2017-01-08T03:36:10.814Z,-2.2
2017-01-08T03:36:29.470Z,-2.2
2017-01-08T03:36:48.121Z,-2.2
2017-01-08T03:37:06.784Z,-2.2
2017-01-08T03:37:25.437Z,-2.1
2017-01-08T03:37:44.096Z,-2.1
2017-01-08T03:38:02.747Z,-2.1
2017-01-08T03:38:21.396Z,-2.1
2017-01-08T03:38:40.055Z,-2.1
2017-01-08T03:38:58.744Z,-2.1
2017-01-08T03:39:17.396Z,-2.1
2017-01-08T03:39:36.061Z,-2.1
2017-01-08T03:39:54.719Z,-2.1
2017-01-08T03:40:13.376Z,-2
2017-01-08T03:40:32.065Z,-2
2017-01-08T03:40:50.728Z,-2
2017-01-08T03:41:09.387Z,-2
2017-01-08T03:41:28.046Z,-2
2017-01-08T03:41:46.716Z,-2
2017-01-08T03:42:05.372Z,-2
2017-01-08T03:42:24.033Z,-2
2017-01-08T03:42:42.691Z,-2
2017-01-08T03:43:01.345Z,-2
2017-01-08T03:43:20.012Z,-2
2017-01-08T03:43:38.701Z,-2
2017-01-08T03:43:57.355Z,-1.9
2017-01-08T03:44:16.007Z,-1.9
2017-01-08T03:44:34.669Z,-1.9
2017-01-08T03:44:53.325Z,-1.9
2017-01-08T03:45:12.024Z,-1.9
2017-01-08T03:45:30.684Z,-1.8
2017-01-08T03:45:49.340Z,-1.8
2017-01-08T03:46:08.003Z,-1.8
2017-01-08T03:46:26.661Z,-1.8
2017-01-08T03:46:45.315Z,-1.8
2017-01-08T03:47:03.983Z,-1.8
2017-01-08T03:47:22.657Z,-1.8
2017-01-08T03:47:41.307Z,-1.7
2017-01-08T03:47:59.961Z,-1.7
2017-01-08T03:48:18.658Z,-1.7
2017-01-08T03:48:37.312Z,-1.7
2017-01-08T03:48:55.976Z,-1.7
2017-01-08T03:49:14.635Z,-1.7
2017-01-08T03:49:33.298Z,-1.7
2017-01-08T03:49:52.010Z,-1.7
2017-01-08T03:50:10.660Z,-1.7
2017-01-08T03:50:29.327Z,-1.7
2017-01-08T03:50:47.983Z,-1.6
2017-01-08T03:51:06.639Z,-1.6
2017-01-08T03:51:25.294Z,-1.6
2017-01-08T03:51:43.952Z,-1.6
2017-01-08T03:52:02.603Z,-1.6
2017-01-08T03:52:21.266Z,-1.6
2017-01-08T03:52:39.931Z,-1.6
2017-01-08T03:52:58.618Z,-1.6
2017-01-08T03:53:17.271Z,-1.6
2017-01-08T03:53:35.932Z,-1.5
2017-01-08T03:53:54.590Z,-1.5
2017-01-08T03:54:13.241Z,-1.5
2017-01-08T03:54:31.899Z,-1.5
2017-01-08T03:54:50.552Z,-1.5
2017-01-08T03:55:09.210Z,-1.5
2017-01-08T03:55:27.864Z,-1.5
2017-01-08T03:55:46.522Z,-1.5
2017-01-08T03:56:05.182Z,-1.5
2017-01-08T03:56:23.841Z,-1.5
2017-01-08T03:56:42.498Z,-1.4
2017-01-08T03:57:01.155Z,-1.4
2017-01-08T03:57:19.819Z,-1.4
2017-01-08T03:57:38.511Z,-1.4
2017-01-08T03:57:57.160Z,-1.4
2017-01-08T03:58:15.812Z,-1.4
2017-01-08T03:58:34.475Z,-1.4
2017-01-08T03:58:53.133Z,-1.4
2017-01-08T03:59:11.785Z,-1.3
2017-01-08T03:59:30.433Z,-1.3
2017-01-08T03:59:49.087Z,-1.3
2017-01-08T04:00:07.747Z,-1.3
2017-01-08T04:00:26.398Z,-1.3
2017-01-08T04:00:45.059Z,-1.3
2017-01-08T04:01:03.728Z,-1.3
2017-01-08T04:01:22.385Z,-1.3
2017-01-08T04:01:41.040Z,-1.3
2017-01-08T04:01:59.690Z,-1.3
2017-01-08T04:02:18.365Z,-1.3
2017-01-08T04:02:37.035Z,-1.3
2017-01-08T04:02:55.692Z,-1.3
2017-01-08T04:03:14.343Z,-1.2
2017-01-08T04:03:32.999Z,-1.3
2017-01-08T04:03:51.653Z,-1.2
2017-01-08T04:04:10.309Z,-1.2
2017-01-08T04:04:28.959Z,-1.2
2017-01-08T04:04:47.625Z,-1.2
2017-01-08T04:05:06.289Z,-1.2
2017-01-08T04:05:24.942Z,-1.2
2017-01-08T04:05:43.632Z,-1.2
2017-01-08T04:06:02.293Z,-1.2
2017-01-08T04:06:20.951Z,-1.2
2017-01-08T04:06:39.604Z,-1.2
2017-01-08T04:06:58.251Z,-1.2
2017-01-08T04:07:16.954Z,-1.2
2017-01-08T04:07:35.610Z,-1.2
2017-01-08T04:07:54.269Z,-1.2
2017-01-08T04:08:12.922Z,-1.2
2017-01-08T04:08:31.577Z,-1.2
2017-01-08T04:08:50.232Z,-1.2
2017-01-08T04:09:08.888Z,-1.2
2017-01-08T04:09:27.549Z,-1.2